NCAR-RAP Real-Time Weather Data

Output produced by METARs form (23 February 2020  02:19 UTC)
found at http://weather.rap.ucar.edu/surface/
 
KMSN 230153Z 19005KT 10SM SCT180 SCT250 03/M02 A3000 RMK AO2 SLP168 T00331022
KMSN 230053Z 19004KT 10SM BKN200 BKN250 03/M03 A3001 RMK AO2 SLP170 T00331028
KMSN 222353Z 20005KT 10SM BKN200 BKN250 04/M03 A3001 RMK AO2 SLP171 4/010 T00391028 10044 20028 56015
KMSN 222253Z 20006KT 10SM BKN200 BKN250 04/M03 A3002 RMK AO2 SLP176 T00391033
KMSN 222153Z 20009KT 10SM BKN200 BKN250 04/M04 A3004 RMK AO2 SLP181 T00441039
KMSN 222053Z 20009KT 10SM BKN250 04/M04 A3005 RMK AO2 SLP185 T00441039 56021
KMSN 221953Z 18011KT 10SM BKN250 04/M04 A3007 RMK AO2 SLP190 T00391039
KMSN 221853Z 19010KT 10SM SCT250 04/M04 A3009 RMK AO2 SLP198 T00391039
KMSN 221753Z 21009KT 10SM SCT250 03/M05 A3011 RMK AO2 SLP207 T00281050 10033 21039 57009
KMSN 221653Z 23004KT 10SM FEW250 02/M06 A3012 RMK AO2 SLP211 T00221056
KMSN 221553Z 25006KT 10SM CLR 00/M07 A3013 RMK AO2 SLP215 T00001067
KMSN 221453Z 22006KT 10SM CLR M02/M07 A3014 RMK AO2 SLP218 T10171072 55001
KMSN 221353Z 20006KT 10SM CLR M03/M08 A3014 RMK AO2 SLP217 T10331083
KMSN 221253Z VRB05KT 10SM CLR M03/M08 A3014 RMK AO2 SLP219 T10331083
KMSN 221153Z 21005KT 10SM CLR M03/M08 A3014 RMK AO2 SLP219 4/010 T10331083 11011 21050 56001
KMSN 221053Z AUTO 24003KT 10SM CLR M05/M09 A3015 RMK AO2 SLP221 T10501094
KMSN 220953Z AUTO 24003KT 10SM CLR M03/M09 A3014 RMK AO2 SLP217 T10281089
KMSN 220853Z AUTO 23003KT 10SM CLR M03/M09 A3015 RMK AO2 SLP220 T10281089 58013
KMSN 220753Z AUTO 23007KT 10SM CLR M02/M09 A3016 RMK AO2 SLP225 T10221089
KMSN 220653Z AUTO 22005KT 10SM CLR M02/M09 A3018 RMK AO2 SLP232 T10221089
KMSN 220553Z AUTO 21012G19KT 10SM CLR M01/M09 A3019 RMK AO2 SLP233 T10111089 10000 21017 400111156 58014
KMSN 220453Z 21007G16KT 190V260 10SM SCT250 M02/M09 A3021 RMK AO2 SLP241 LAST T10171089
KMSN 220353Z 22008KT 10SM BKN250 M02/M09 A3022 RMK AO2 SLP246 T10171089
KMSN 220253Z 21006KT 10SM SCT250 M01/M09 A3023 RMK AO2 SLP251 T10111089 55003
KMSN 220153Z 22008G15KT 10SM BKN250 M01/M09 A3022 RMK AO2 SLP249 T10061089
KMSN 220053Z 20007KT 10SM BKN250 M01/M08 A3022 RMK AO2 SLP250 T10111083
KMSN 212353Z 21006KT 10SM FEW250 00/M09 A3024 RMK AO2 SLP255 4/010 T00001089 10011 21017 55014
KMSN 212253Z 21012G21KT 10SM FEW250 01/M08 A3024 RMK AO2 SLP254 T00061083
KMSN 212153Z 21012G22KT 10SM CLR 01/M09 A3027 RMK AO2 PK WND 23027/2056 SLP263 T00111094
KMSN 212053Z 22010G23KT 10SM CLR 01/M09 A3028 RMK AO2 PK WND 21030/2000 SLP269 T00111094 56042
KMSN 211953Z 21010G23KT 10SM CLR 01/M10 A3031 RMK AO2 PK WND 23026/1940 SLP279 T00061100
KMSN 211853Z 22009G22KT 180V250 10SM CLR M01/M11 A3036 RMK AO2 SLP296 T10061106
KMSN 211753Z 22007G19KT 190V260 10SM CLR M02/M11 A3041 RMK AO2 SLP315 4/010 933025 T10171111 11017 21128 58019
KMSN 211653Z 25006G19KT 10SM CLR M04/M12 A3044 RMK AO2 SLP324 T10391122
KMSN 211553Z 24009G18KT 10SM CLR M06/M13 A3045 RMK AO2 SLP331 T10611133
KMSN 211453Z 21007G15KT 10SM CLR M09/M15 A3046 RMK AO2 SLP336 T10891150 56008
KMSN 211353Z 21007KT 10SM CLR M11/M17 A3047 RMK AO2 SLP338 T11111167
KMSN 211253Z 23006KT 10SM CLR M12/M17 A3047 RMK AO2 SLP340 T11221172 $
KMSN 211153Z 21005KT 10SM CLR M13/M18 A3049 RMK AO2 SLP345 4/011 T11281178 11122 21156 56016 $
KMSN 211053Z AUTO 22005KT 10SM CLR M13/M18 A3050 RMK AO2 SLP349 T11281183 $
KMSN 210953Z AUTO 23007KT 10SM CLR M13/M18 A3051 RMK AO2 UPE29 SLP352 P0000 T11281183 $
KMSN 210853Z AUTO 00000KT 10SM UP CLR M14/M19 A3054 RMK AO2 UPB24 SLP361 P0000 60000 T11391194 58021 $
KMSN 210753Z AUTO VRB03KT 10SM CLR M15/M22 A3056 RMK AO2 SLP370 T11501217 $
KMSN 210653Z AUTO 22003KT 9SM CLR M16/M22 A3058 RMK AO2 SLP378 T11561222 $
KMSN 210553Z AUTO 00000KT 9SM CLR M15/M22 A3060 RMK AO2 SLP384 60000 T11501217 11100 21150 410831222 58011 $
KMSN 210453Z 00000KT 10SM CLR M14/M21 A3062 RMK AO2 SLP390 LAST T11391206 $
KMSN 210353Z 00000KT 10SM CLR M14/M21 A3063 RMK AO2 SLP394 T11391206 $
KMSN 210253Z 00000KT 10SM CLR M13/M20 A3063 RMK AO2 SLP396 T11331200 57001 $